sensor_id;sensor_type;location;lat;lon;timestamp;temperature;humidity
80695;DHT22;70059;42.702;23.312;2023-07-02T00:01:46;20.80;62.20
80695;DHT22;70059;42.702;23.312;2023-07-02T00:04:13;20.80;62.00
80695;DHT22;70059;42.702;23.312;2023-07-02T00:06:46;20.70;62.50
80695;DHT22;70059;42.702;23.312;2023-07-02T00:09:12;20.60;62.70
80695;DHT22;70059;42.702;23.312;2023-07-02T00:11:39;20.60;64.20
80695;DHT22;70059;42.702;23.312;2023-07-02T00:14:06;20.50;63.30
80695;DHT22;70059;42.702;23.312;2023-07-02T00:16:31;20.20;64.40
80695;DHT22;70059;42.702;23.312;2023-07-02T00:18:58;20.20;64.90
80695;DHT22;70059;42.702;23.312;2023-07-02T00:21:26;20.20;64.70
80695;DHT22;70059;42.702;23.312;2023-07-02T00:23:54;20.30;64.70
80695;DHT22;70059;42.702;23.312;2023-07-02T00:26:26;20.30;64.60
80695;DHT22;70059;42.702;23.312;2023-07-02T00:28:53;20.30;64.10
80695;DHT22;70059;42.702;23.312;2023-07-02T00:31:19;20.40;63.50
80695;DHT22;70059;42.702;23.312;2023-07-02T00:33:45;20.40;62.90
80695;DHT22;70059;42.702;23.312;2023-07-02T00:36:10;20.50;63.00
80695;DHT22;70059;42.702;23.312;2023-07-02T00:38:44;20.40;63.10
80695;DHT22;70059;42.702;23.312;2023-07-02T00:41:10;20.30;63.40
80695;DHT22;70059;42.702;23.312;2023-07-02T00:43:36;20.10;64.30
80695;DHT22;70059;42.702;23.312;2023-07-02T00:48:47;20.40;63.20
80695;DHT22;70059;42.702;23.312;2023-07-02T00:51:20;20.30;63.80
80695;DHT22;70059;42.702;23.312;2023-07-02T00:53:47;20.30;63.80
80695;DHT22;70059;42.702;23.312;2023-07-02T00:56:14;20.40;63.50
80695;DHT22;70059;42.702;23.312;2023-07-02T00:58:44;20.40;63.30
80695;DHT22;70059;42.702;23.312;2023-07-02T01:01:25;20.60;62.80
80695;DHT22;70059;42.702;23.312;2023-07-02T01:03:57;20.60;62.50
80695;DHT22;70059;42.702;23.312;2023-07-02T01:06:26;20.70;62.10
80695;DHT22;70059;42.702;23.312;2023-07-02T01:08:58;20.70;62.10
80695;DHT22;70059;42.702;23.312;2023-07-02T01:11:30;20.60;62.50
80695;DHT22;70059;42.702;23.312;2023-07-02T01:14:24;20.60;62.30
80695;DHT22;70059;42.702;23.312;2023-07-02T01:16:52;20.60;62.20
80695;DHT22;70059;42.702;23.312;2023-07-02T01:19:44;20.60;61.90
80695;DHT22;70059;42.702;23.312;2023-07-02T01:22:12;20.60;62.00
80695;DHT22;70059;42.702;23.312;2023-07-02T01:24:41;20.60;61.90
80695;DHT22;70059;42.702;23.312;2023-07-02T01:27:07;20.60;62.80
80695;DHT22;70059;42.702;23.312;2023-07-02T01:29:35;20.70;62.20
80695;DHT22;70059;42.702;23.312;2023-07-02T01:32:05;20.80;61.00
80695;DHT22;70059;42.702;23.312;2023-07-02T01:34:31;20.80;61.00
80695;DHT22;70059;42.702;23.312;2023-07-02T01:36:56;20.80;61.20
80695;DHT22;70059;42.702;23.312;2023-07-02T01:39:22;20.90;60.90
80695;DHT22;70059;42.702;23.312;2023-07-02T01:41:52;20.90;61.20
80695;DHT22;70059;42.702;23.312;2023-07-02T01:44:19;20.80;61.60
80695;DHT22;70059;42.702;23.312;2023-07-02T01:46:46;20.80;61.90
80695;DHT22;70059;42.702;23.312;2023-07-02T01:49:15;20.80;61.70
80695;DHT22;70059;42.702;23.312;2023-07-02T01:51:45;20.80;61.60
80695;DHT22;70059;42.702;23.312;2023-07-02T01:54:14;20.80;61.10
80695;DHT22;70059;42.702;23.312;2023-07-02T01:56:39;20.80;60.80
80695;DHT22;70059;42.702;23.312;2023-07-02T01:59:05;20.70;60.50
80695;DHT22;70059;42.702;23.312;2023-07-02T02:01:31;20.60;60.50
80695;DHT22;70059;42.702;23.312;2023-07-02T02:03:58;20.70;60.40
80695;DHT22;70059;42.702;23.312;2023-07-02T02:06:24;20.70;60.20
80695;DHT22;70059;42.702;23.312;2023-07-02T02:08:49;20.70;59.50
80695;DHT22;70059;42.702;23.312;2023-07-02T02:11:15;20.60;60.20
80695;DHT22;70059;42.702;23.312;2023-07-02T02:13:41;20.70;60.00
80695;DHT22;70059;42.702;23.312;2023-07-02T02:16:07;20.40;61.00
80695;DHT22;70059;42.702;23.312;2023-07-02T02:18:32;20.30;61.80
80695;DHT22;70059;42.702;23.312;2023-07-02T02:20:58;20.20;62.10
80695;DHT22;70059;42.702;23.312;2023-07-02T02:23:24;20.10;62.50
80695;DHT22;70059;42.702;23.312;2023-07-02T02:25:49;20.10;62.60
80695;DHT22;70059;42.702;23.312;2023-07-02T02:28:15;20.20;62.50
80695;DHT22;70059;42.702;23.312;2023-07-02T02:30:41;20.20;62.00
80695;DHT22;70059;42.702;23.312;2023-07-02T02:33:06;20.00;62.80
80695;DHT22;70059;42.702;23.312;2023-07-02T02:35:32;20.10;63.20
80695;DHT22;70059;42.702;23.312;2023-07-02T02:38:00;20.00;63.40
80695;DHT22;70059;42.702;23.312;2023-07-02T02:40:26;20.00;63.70
80695;DHT22;70059;42.702;23.312;2023-07-02T02:42:52;19.90;63.80
80695;DHT22;70059;42.702;23.312;2023-07-02T02:45:17;19.80;63.70
80695;DHT22;70059;42.702;23.312;2023-07-02T02:47:43;19.70;63.60
80695;DHT22;70059;42.702;23.312;2023-07-02T02:50:12;19.60;64.10
80695;DHT22;70059;42.702;23.312;2023-07-02T02:52:38;19.70;64.00
80695;DHT22;70059;42.702;23.312;2023-07-02T02:55:06;20.00;62.80
80695;DHT22;70059;42.702;23.312;2023-07-02T02:57:33;19.90;62.60
80695;DHT22;70059;42.702;23.312;2023-07-02T02:59:59;19.70;63.30
80695;DHT22;70059;42.702;23.312;2023-07-02T03:02:24;19.60;63.80
80695;DHT22;70059;42.702;23.312;2023-07-02T03:04:50;19.70;63.40
80695;DHT22;70059;42.702;23.312;2023-07-02T03:07:16;19.70;63.30
80695;DHT22;70059;42.702;23.312;2023-07-02T03:09:42;19.60;63.40
80695;DHT22;70059;42.702;23.312;2023-07-02T03:12:08;19.70;63.70
80695;DHT22;70059;42.702;23.312;2023-07-02T03:14:33;20.00;62.40
80695;DHT22;70059;42.702;23.312;2023-07-02T03:16:59;20.10;62.00
80695;DHT22;70059;42.702;23.312;2023-07-02T03:19:25;20.10;62.20
80695;DHT22;70059;42.702;23.312;2023-07-02T03:21:51;20.00;62.10
80695;DHT22;70059;42.702;23.312;2023-07-02T03:24:17;19.90;62.90
80695;DHT22;70059;42.702;23.312;2023-07-02T03:26:43;20.00;62.80
80695;DHT22;70059;42.702;23.312;2023-07-02T03:29:10;20.40;61.20
80695;DHT22;70059;42.702;23.312;2023-07-02T03:31:36;20.50;61.10
80695;DHT22;70059;42.702;23.312;2023-07-02T03:34:07;20.40;61.70
80695;DHT22;70059;42.702;23.312;2023-07-02T03:36:34;20.20;62.00
80695;DHT22;70059;42.702;23.312;2023-07-02T03:39:00;20.30;62.30
80695;DHT22;70059;42.702;23.312;2023-07-02T03:41:25;20.30;61.80
80695;DHT22;70059;42.702;23.312;2023-07-02T03:43:51;20.30;61.90
80695;DHT22;70059;42.702;23.312;2023-07-02T03:46:17;20.40;61.70
80695;DHT22;70059;42.702;23.312;2023-07-02T03:48:42;20.60;61.20
80695;DHT22;70059;42.702;23.312;2023-07-02T03:51:08;20.60;60.60
80695;DHT22;70059;42.702;23.312;2023-07-02T03:53:34;20.60;60.40
80695;DHT22;70059;42.702;23.312;2023-07-02T03:55:59;20.80;59.30
80695;DHT22;70059;42.702;23.312;2023-07-02T03:58:25;20.70;59.60
80695;DHT22;70059;42.702;23.312;2023-07-02T04:00:51;20.60;60.80
80695;DHT22;70059;42.702;23.312;2023-07-02T04:03:17;20.60;60.00
80695;DHT22;70059;42.702;23.312;2023-07-02T04:05:43;20.70;59.60
80695;DHT22;70059;42.702;23.312;2023-07-02T04:08:09;20.80;59.50
80695;DHT22;70059;42.702;23.312;2023-07-02T04:10:35;20.50;60.70
80695;DHT22;70059;42.702;23.312;2023-07-02T04:13:01;20.80;59.90
80695;DHT22;70059;42.702;23.312;2023-07-02T04:15:27;21.00;59.40
80695;DHT22;70059;42.702;23.312;2023-07-02T04:17:53;20.80;59.80
80695;DHT22;70059;42.702;23.312;2023-07-02T04:20:20;20.60;60.90
80695;DHT22;70059;42.702;23.312;2023-07-02T04:22:46;20.50;61.00
80695;DHT22;70059;42.702;23.312;2023-07-02T04:25:12;20.60;60.80
80695;DHT22;70059;42.702;23.312;2023-07-02T04:27:45;20.50;61.90
80695;DHT22;70059;42.702;23.312;2023-07-02T04:30:11;20.70;61.60
80695;DHT22;70059;42.702;23.312;2023-07-02T04:32:38;20.80;60.70
80695;DHT22;70059;42.702;23.312;2023-07-02T04:35:08;20.90;60.80
80695;DHT22;70059;42.702;23.312;2023-07-02T04:37:34;20.80;60.90
80695;DHT22;70059;42.702;23.312;2023-07-02T04:40:00;20.80;61.70
80695;DHT22;70059;42.702;23.312;2023-07-02T04:42:26;20.80;62.20
80695;DHT22;70059;42.702;23.312;2023-07-02T04:44:57;20.80;62.50
80695;DHT22;70059;42.702;23.312;2023-07-02T04:47:31;20.80;62.50
80695;DHT22;70059;42.702;23.312;2023-07-02T04:49:57;20.90;62.30
80695;DHT22;70059;42.702;23.312;2023-07-02T04:52:24;21.10;62.10
80695;DHT22;70059;42.702;23.312;2023-07-02T04:54:49;21.30;60.50
80695;DHT22;70059;42.702;23.312;2023-07-02T04:57:15;21.40;60.40
80695;DHT22;70059;42.702;23.312;2023-07-02T04:59:44;21.30;60.20
80695;DHT22;70059;42.702;23.312;2023-07-02T05:02:10;21.20;60.70
80695;DHT22;70059;42.702;23.312;2023-07-02T05:04:36;21.40;60.50
80695;DHT22;70059;42.702;23.312;2023-07-02T05:07:05;21.40;60.20
80695;DHT22;70059;42.702;23.312;2023-07-02T05:09:31;21.30;60.60
80695;DHT22;70059;42.702;23.312;2023-07-02T05:12:00;21.60;59.80
80695;DHT22;70059;42.702;23.312;2023-07-02T05:14:25;21.70;59.10
80695;DHT22;70059;42.702;23.312;2023-07-02T05:16:51;21.60;59.80
80695;DHT22;70059;42.702;23.312;2023-07-02T05:19:16;21.50;60.00
80695;DHT22;70059;42.702;23.312;2023-07-02T05:21:42;21.50;60.10
80695;DHT22;70059;42.702;23.312;2023-07-02T05:24:08;21.50;59.80
80695;DHT22;70059;42.702;23.312;2023-07-02T05:26:34;21.50;59.80
80695;DHT22;70059;42.702;23.312;2023-07-02T05:29:02;21.70;58.70
80695;DHT22;70059;42.702;23.312;2023-07-02T05:31:27;21.80;57.60
80695;DHT22;70059;42.702;23.312;2023-07-02T05:33:54;21.90;57.70
80695;DHT22;70059;42.702;23.312;2023-07-02T05:36:20;21.80;57.50
80695;DHT22;70059;42.702;23.312;2023-07-02T05:38:46;21.80;57.80
80695;DHT22;70059;42.702;23.312;2023-07-02T05:41:18;21.70;58.00
80695;DHT22;70059;42.702;23.312;2023-07-02T05:43:44;21.90;58.20
80695;DHT22;70059;42.702;23.312;2023-07-02T05:46:10;22.00;57.30
80695;DHT22;70059;42.702;23.312;2023-07-02T05:48:35;22.10;56.80
80695;DHT22;70059;42.702;23.312;2023-07-02T05:51:01;22.20;56.90
80695;DHT22;70059;42.702;23.312;2023-07-02T05:53:29;22.10;56.60
80695;DHT22;70059;42.702;23.312;2023-07-02T05:55:54;22.20;56.50
80695;DHT22;70059;42.702;23.312;2023-07-02T05:58:20;22.30;56.30
80695;DHT22;70059;42.702;23.312;2023-07-02T06:00:45;22.30;55.80
80695;DHT22;70059;42.702;23.312;2023-07-02T06:03:15;22.30;56.00
80695;DHT22;70059;42.702;23.312;2023-07-02T06:05:46;22.40;55.90
80695;DHT22;70059;42.702;23.312;2023-07-02T06:08:12;22.70;55.00
80695;DHT22;70059;42.702;23.312;2023-07-02T06:10:37;23.10;53.20
80695;DHT22;70059;42.702;23.312;2023-07-02T06:13:03;23.10;53.20
80695;DHT22;70059;42.702;23.312;2023-07-02T06:15:29;23.30;52.60
80695;DHT22;70059;42.702;23.312;2023-07-02T06:17:54;23.30;52.50
80695;DHT22;70059;42.702;23.312;2023-07-02T06:20:20;23.30;52.70
80695;DHT22;70059;42.702;23.312;2023-07-02T06:22:46;23.10;52.70
80695;DHT22;70059;42.702;23.312;2023-07-02T06:25:11;23.20;52.90
80695;DHT22;70059;42.702;23.312;2023-07-02T06:27:37;23.30;52.70
80695;DHT22;70059;42.702;23.312;2023-07-02T06:30:03;23.50;52.20
80695;DHT22;70059;42.702;23.312;2023-07-02T06:32:29;23.50;52.40
80695;DHT22;70059;42.702;23.312;2023-07-02T06:34:54;23.30;52.70
80695;DHT22;70059;42.702;23.312;2023-07-02T06:37:20;23.40;52.50
80695;DHT22;70059;42.702;23.312;2023-07-02T06:39:46;22.90;53.40
80695;DHT22;70059;42.702;23.312;2023-07-02T06:42:11;23.20;52.90
80695;DHT22;70059;42.702;23.312;2023-07-02T06:44:37;23.40;52.10
80695;DHT22;70059;42.702;23.312;2023-07-02T06:47:03;23.50;52.70
80695;DHT22;70059;42.702;23.312;2023-07-02T06:49:28;23.90;51.10
80695;DHT22;70059;42.702;23.312;2023-07-02T06:51:54;24.00;50.70
80695;DHT22;70059;42.702;23.312;2023-07-02T06:54:20;23.70;51.30
80695;DHT22;70059;42.702;23.312;2023-07-02T06:56:45;23.90;51.30
80695;DHT22;70059;42.702;23.312;2023-07-02T06:59:11;24.20;50.20
80695;DHT22;70059;42.702;23.312;2023-07-02T07:01:37;24.40;49.80
80695;DHT22;70059;42.702;23.312;2023-07-02T07:04:03;24.70;49.60
80695;DHT22;70059;42.702;23.312;2023-07-02T07:06:29;24.70;49.40
80695;DHT22;70059;42.702;23.312;2023-07-02T07:08:55;25.00;49.10
80695;DHT22;70059;42.702;23.312;2023-07-02T07:11:20;24.90;48.90
80695;DHT22;70059;42.702;23.312;2023-07-02T07:13:46;25.10;48.80
80695;DHT22;70059;42.702;23.312;2023-07-02T07:16:12;25.30;48.00
80695;DHT22;70059;42.702;23.312;2023-07-02T07:18:37;25.30;47.30
80695;DHT22;70059;42.702;23.312;2023-07-02T07:21:03;25.30;47.30
80695;DHT22;70059;42.702;23.312;2023-07-02T07:23:29;25.30;47.10
80695;DHT22;70059;42.702;23.312;2023-07-02T07:25:54;25.30;47.10
80695;DHT22;70059;42.702;23.312;2023-07-02T07:28:20;25.40;47.00
80695;DHT22;70059;42.702;23.312;2023-07-02T07:30:46;25.40;47.30
80695;DHT22;70059;42.702;23.312;2023-07-02T07:33:12;25.60;46.10
80695;DHT22;70059;42.702;23.312;2023-07-02T07:35:37;25.30;46.80
80695;DHT22;70059;42.702;23.312;2023-07-02T07:38:04;25.20;47.90
80695;DHT22;70059;42.702;23.312;2023-07-02T07:40:30;25.10;48.60
80695;DHT22;70059;42.702;23.312;2023-07-02T07:42:55;25.10;48.10
80695;DHT22;70059;42.702;23.312;2023-07-02T07:45:21;25.10;47.90
80695;DHT22;70059;42.702;23.312;2023-07-02T07:47:46;24.80;48.10
80695;DHT22;70059;42.702;23.312;2023-07-02T07:50:12;24.50;48.50
80695;DHT22;70059;42.702;23.312;2023-07-02T07:52:39;23.90;50.10
80695;DHT22;70059;42.702;23.312;2023-07-02T07:55:08;23.60;51.70
80695;DHT22;70059;42.702;23.312;2023-07-02T07:57:35;23.90;51.40
80695;DHT22;70059;42.702;23.312;2023-07-02T08:00:02;23.70;51.50
80695;DHT22;70059;42.702;23.312;2023-07-02T08:02:30;23.70;52.00
80695;DHT22;70059;42.702;23.312;2023-07-02T08:04:55;23.90;50.80
80695;DHT22;70059;42.702;23.312;2023-07-02T08:07:21;23.90;51.40
80695;DHT22;70059;42.702;23.312;2023-07-02T08:09:47;24.30;50.50
80695;DHT22;70059;42.702;23.312;2023-07-02T08:12:13;24.60;49.90
80695;DHT22;70059;42.702;23.312;2023-07-02T08:14:39;24.80;49.00
80695;DHT22;70059;42.702;23.312;2023-07-02T08:17:04;24.40;49.10
80695;DHT22;70059;42.702;23.312;2023-07-02T08:19:30;24.40;50.30
80695;DHT22;70059;42.702;23.312;2023-07-02T08:21:56;24.60;49.70
80695;DHT22;70059;42.702;23.312;2023-07-02T08:24:21;24.90;48.60
80695;DHT22;70059;42.702;23.312;2023-07-02T08:26:47;24.70;49.20
80695;DHT22;70059;42.702;23.312;2023-07-02T08:29:15;25.10;48.90
80695;DHT22;70059;42.702;23.312;2023-07-02T08:31:41;25.30;47.90
80695;DHT22;70059;42.702;23.312;2023-07-02T08:34:08;25.50;47.60
80695;DHT22;70059;42.702;23.312;2023-07-02T08:36:34;26.40;45.80
80695;DHT22;70059;42.702;23.312;2023-07-02T08:39:00;27.10;42.60
80695;DHT22;70059;42.702;23.312;2023-07-02T08:41:25;26.40;44.40
80695;DHT22;70059;42.702;23.312;2023-07-02T08:43:55;26.00;44.30
80695;DHT22;70059;42.702;23.312;2023-07-02T08:46:20;25.90;45.30
80695;DHT22;70059;42.702;23.312;2023-07-02T08:48:47;26.30;45.10
80695;DHT22;70059;42.702;23.312;2023-07-02T08:51:13;27.70;40.80
80695;DHT22;70059;42.702;23.312;2023-07-02T08:53:38;29.50;37.20
80695;DHT22;70059;42.702;23.312;2023-07-02T08:56:04;31.40;31.80
80695;DHT22;70059;42.702;23.312;2023-07-02T08:58:30;33.50;28.90
80695;DHT22;70059;42.702;23.312;2023-07-02T09:01:09;34.20;27.30
80695;DHT22;70059;42.702;23.312;2023-07-02T09:03:37;34.00;27.50
80695;DHT22;70059;42.702;23.312;2023-07-02T09:06:10;33.70;27.50
80695;DHT22;70059;42.702;23.312;2023-07-02T09:08:37;34.60;25.60
80695;DHT22;70059;42.702;23.312;2023-07-02T09:11:10;35.80;25.70
80695;DHT22;70059;42.702;23.312;2023-07-02T09:13:48;38.00;22.70
80695;DHT22;70059;42.702;23.312;2023-07-02T09:19:07;41.10;18.40
80695;DHT22;70059;42.702;23.312;2023-07-02T09:21:41;41.60;17.70
80695;DHT22;70059;42.702;23.312;2023-07-02T09:24:15;42.10;17.00
80695;DHT22;70059;42.702;23.312;2023-07-02T09:26:50;43.40;15.80
80695;DHT22;70059;42.702;23.312;2023-07-02T09:31:49;44.30;14.10
80695;DHT22;70059;42.702;23.312;2023-07-02T09:34:14;43.60;14.40
80695;DHT22;70059;42.702;23.312;2023-07-02T09:36:40;43.30;15.00
80695;DHT22;70059;42.702;23.312;2023-07-02T09:39:13;42.00;16.40
80695;DHT22;70059;42.702;23.312;2023-07-02T09:41:42;39.30;19.20
80695;DHT22;70059;42.702;23.312;2023-07-02T09:44:10;38.70;20.60
80695;DHT22;70059;42.702;23.312;2023-07-02T09:46:42;38.00;20.60
80695;DHT22;70059;42.702;23.312;2023-07-02T09:49:14;36.40;22.30
80695;DHT22;70059;42.702;23.312;2023-07-02T09:51:43;35.90;23.10
80695;DHT22;70059;42.702;23.312;2023-07-02T09:54:10;35.70;23.30
80695;DHT22;70059;42.702;23.312;2023-07-02T09:56:35;36.20;23.90
80695;DHT22;70059;42.702;23.312;2023-07-02T09:59:01;37.20;21.40
80695;DHT22;70059;42.702;23.312;2023-07-02T10:01:27;37.80;21.20
80695;DHT22;70059;42.702;23.312;2023-07-02T10:03:52;39.20;19.70
80695;DHT22;70059;42.702;23.312;2023-07-02T10:06:18;39.70;18.70
80695;DHT22;70059;42.702;23.312;2023-07-02T10:08:54;40.70;18.20
80695;DHT22;70059;42.702;23.312;2023-07-02T10:11:20;41.90;16.70
80695;DHT22;70059;42.702;23.312;2023-07-02T10:13:45;42.90;15.60
80695;DHT22;70059;42.702;23.312;2023-07-02T10:16:11;43.90;14.40
80695;DHT22;70059;42.702;23.312;2023-07-02T10:18:38;44.50;13.30
80695;DHT22;70059;42.702;23.312;2023-07-02T10:21:17;45.20;12.90
80695;DHT22;70059;42.702;23.312;2023-07-02T10:23:43;45.20;12.70
80695;DHT22;70059;42.702;23.312;2023-07-02T10:26:18;45.60;12.70
80695;DHT22;70059;42.702;23.312;2023-07-02T10:29:00;45.70;12.80
80695;DHT22;70059;42.702;23.312;2023-07-02T10:31:26;45.60;12.50
80695;DHT22;70059;42.702;23.312;2023-07-02T10:33:53;45.70;13.00
80695;DHT22;70059;42.702;23.312;2023-07-02T10:36:23;45.60;12.10
80695;DHT22;70059;42.702;23.312;2023-07-02T10:38:50;45.00;11.80
80695;DHT22;70059;42.702;23.312;2023-07-02T10:41:25;45.10;11.60
80695;DHT22;70059;42.702;23.312;2023-07-02T10:43:51;45.10;12.30
80695;DHT22;70059;42.702;23.312;2023-07-02T10:46:21;45.20;12.60
80695;DHT22;70059;42.702;23.312;2023-07-02T10:48:57;46.00;12.10
80695;DHT22;70059;42.702;23.312;2023-07-02T10:51:23;44.70;12.90
80695;DHT22;70059;42.702;23.312;2023-07-02T10:54:02;43.90;14.20
80695;DHT22;70059;42.702;23.312;2023-07-02T10:56:30;43.60;14.40
80695;DHT22;70059;42.702;23.312;2023-07-02T10:58:56;43.50;13.60
80695;DHT22;70059;42.702;23.312;2023-07-02T11:01:26;43.30;13.00
80695;DHT22;70059;42.702;23.312;2023-07-02T11:04:00;41.80;14.40
80695;DHT22;70059;42.702;23.312;2023-07-02T11:06:27;39.90;16.80
80695;DHT22;70059;42.702;23.312;2023-07-02T11:08:53;38.30;18.40
80695;DHT22;70059;42.702;23.312;2023-07-02T11:11:21;36.70;20.60
80695;DHT22;70059;42.702;23.312;2023-07-02T11:13:48;37.50;20.20
80695;DHT22;70059;42.702;23.312;2023-07-02T11:16:24;39.10;19.20
80695;DHT22;70059;42.702;23.312;2023-07-02T11:19:08;40.70;16.00
80695;DHT22;70059;42.702;23.312;2023-07-02T11:21:35;42.00;13.90
80695;DHT22;70059;42.702;23.312;2023-07-02T11:24:05;42.40;13.90
80695;DHT22;70059;42.702;23.312;2023-07-02T11:26:40;41.70;14.70
80695;DHT22;70059;42.702;23.312;2023-07-02T11:29:17;40.30;16.80
80695;DHT22;70059;42.702;23.312;2023-07-02T11:31:43;38.50;19.20
80695;DHT22;70059;42.702;23.312;2023-07-02T11:36:38;35.50;23.90
80695;DHT22;70059;42.702;23.312;2023-07-02T11:39:04;34.50;25.60
80695;DHT22;70059;42.702;23.312;2023-07-02T11:41:41;33.90;26.50
80695;DHT22;70059;42.702;23.312;2023-07-02T11:44:07;33.10;27.30
80695;DHT22;70059;42.702;23.312;2023-07-02T11:46:33;32.50;28.80
80695;DHT22;70059;42.702;23.312;2023-07-02T11:49:03;32.40;28.70
80695;DHT22;70059;42.702;23.312;2023-07-02T11:51:36;32.50;28.50
80695;DHT22;70059;42.702;23.312;2023-07-02T11:54:03;33.00;28.30
80695;DHT22;70059;42.702;23.312;2023-07-02T11:56:30;33.50;26.10
80695;DHT22;70059;42.702;23.312;2023-07-02T11:58:56;34.60;24.70
80695;DHT22;70059;42.702;23.312;2023-07-02T12:01:21;34.50;23.00
80695;DHT22;70059;42.702;23.312;2023-07-02T12:03:47;34.30;23.00
80695;DHT22;70059;42.702;23.312;2023-07-02T12:06:13;33.60;23.90
80695;DHT22;70059;42.702;23.312;2023-07-02T12:08:39;32.70;25.20
80695;DHT22;70059;42.702;23.312;2023-07-02T12:11:04;31.80;27.30
80695;DHT22;70059;42.702;23.312;2023-07-02T12:13:30;31.20;29.00
80695;DHT22;70059;42.702;23.312;2023-07-02T12:15:56;30.80;30.60
80695;DHT22;70059;42.702;23.312;2023-07-02T12:18:21;30.50;31.50
80695;DHT22;70059;42.702;23.312;2023-07-02T12:20:47;30.20;32.00
80695;DHT22;70059;42.702;23.312;2023-07-02T12:23:13;29.80;33.80
80695;DHT22;70059;42.702;23.312;2023-07-02T12:25:39;29.60;34.90
80695;DHT22;70059;42.702;23.312;2023-07-02T12:28:05;29.40;36.50
80695;DHT22;70059;42.702;23.312;2023-07-02T12:30:31;29.30;38.20
80695;DHT22;70059;42.702;23.312;2023-07-02T12:32:57;29.00;39.80
80695;DHT22;70059;42.702;23.312;2023-07-02T12:35:22;28.70;39.90
80695;DHT22;70059;42.702;23.312;2023-07-02T12:37:50;28.60;40.30
80695;DHT22;70059;42.702;23.312;2023-07-02T12:40:16;29.10;39.70
80695;DHT22;70059;42.702;23.312;2023-07-02T12:42:43;29.30;37.90
80695;DHT22;70059;42.702;23.312;2023-07-02T12:45:11;29.50;36.80
80695;DHT22;70059;42.702;23.312;2023-07-02T12:47:38;30.20;36.60
80695;DHT22;70059;42.702;23.312;2023-07-02T12:50:05;30.50;34.40
80695;DHT22;70059;42.702;23.312;2023-07-02T12:52:31;31.20;33.40
80695;DHT22;70059;42.702;23.312;2023-07-02T12:54:57;31.60;33.00
80695;DHT22;70059;42.702;23.312;2023-07-02T12:57:23;31.80;31.70
80695;DHT22;70059;42.702;23.312;2023-07-02T12:59:48;31.70;31.50
80695;DHT22;70059;42.702;23.312;2023-07-02T13:02:14;32.30;29.10
80695;DHT22;70059;42.702;23.312;2023-07-02T13:04:40;32.80;29.20
80695;DHT22;70059;42.702;23.312;2023-07-02T13:07:06;33.60;27.60
80695;DHT22;70059;42.702;23.312;2023-07-02T13:09:32;34.70;25.80
80695;DHT22;70059;42.702;23.312;2023-07-02T13:11:57;35.60;25.20
80695;DHT22;70059;42.702;23.312;2023-07-02T13:14:23;36.60;23.80
80695;DHT22;70059;42.702;23.312;2023-07-02T13:16:49;37.20;21.60
80695;DHT22;70059;42.702;23.312;2023-07-02T13:19:14;36.80;22.40
80695;DHT22;70059;42.702;23.312;2023-07-02T13:21:43;36.20;24.00
80695;DHT22;70059;42.702;23.312;2023-07-02T13:24:10;35.40;24.60
80695;DHT22;70059;42.702;23.312;2023-07-02T13:26:36;34.60;26.10
80695;DHT22;70059;42.702;23.312;2023-07-02T13:29:02;33.50;27.80
80695;DHT22;70059;42.702;23.312;2023-07-02T13:31:28;32.70;29.30
80695;DHT22;70059;42.702;23.312;2023-07-02T13:33:54;32.10;30.80
80695;DHT22;70059;42.702;23.312;2023-07-02T13:36:19;31.50;32.30
80695;DHT22;70059;42.702;23.312;2023-07-02T13:38:45;30.90;33.10
80695;DHT22;70059;42.702;23.312;2023-07-02T13:41:11;30.40;33.50
80695;DHT22;70059;42.702;23.312;2023-07-02T13:43:36;30.10;34.10
80695;DHT22;70059;42.702;23.312;2023-07-02T13:46:02;29.90;34.90
80695;DHT22;70059;42.702;23.312;2023-07-02T13:48:28;29.70;35.90
80695;DHT22;70059;42.702;23.312;2023-07-02T13:50:54;29.40;36.40
80695;DHT22;70059;42.702;23.312;2023-07-02T13:53:19;29.10;36.40
80695;DHT22;70059;42.702;23.312;2023-07-02T13:55:46;28.80;37.40
80695;DHT22;70059;42.702;23.312;2023-07-02T13:58:11;28.60;37.90
80695;DHT22;70059;42.702;23.312;2023-07-02T14:00:37;28.30;38.20
80695;DHT22;70059;42.702;23.312;2023-07-02T14:03:05;28.10;39.60
80695;DHT22;70059;42.702;23.312;2023-07-02T14:05:31;27.90;41.20
80695;DHT22;70059;42.702;23.312;2023-07-02T14:07:57;27.80;42.50
80695;DHT22;70059;42.702;23.312;2023-07-02T14:10:22;27.80;41.90
80695;DHT22;70059;42.702;23.312;2023-07-02T14:12:48;27.60;41.90
80695;DHT22;70059;42.702;23.312;2023-07-02T14:15:14;27.20;43.10
80695;DHT22;70059;42.702;23.312;2023-07-02T14:17:40;27.00;44.00
80695;DHT22;70059;42.702;23.312;2023-07-02T14:20:07;26.90;43.90
80695;DHT22;70059;42.702;23.312;2023-07-02T14:22:33;26.50;44.50
80695;DHT22;70059;42.702;23.312;2023-07-02T14:24:58;26.30;44.10
80695;DHT22;70059;42.702;23.312;2023-07-02T14:27:24;26.20;44.80
80695;DHT22;70059;42.702;23.312;2023-07-02T14:29:50;26.30;44.10
80695;DHT22;70059;42.702;23.312;2023-07-02T14:32:16;26.30;44.70
80695;DHT22;70059;42.702;23.312;2023-07-02T14:34:42;26.30;45.30
80695;DHT22;70059;42.702;23.312;2023-07-02T14:37:07;26.40;45.40
80695;DHT22;70059;42.702;23.312;2023-07-02T14:39:33;26.40;45.10
80695;DHT22;70059;42.702;23.312;2023-07-02T14:41:59;26.40;46.50
80695;DHT22;70059;42.702;23.312;2023-07-02T14:44:25;26.20;46.80
80695;DHT22;70059;42.702;23.312;2023-07-02T14:46:51;26.20;47.00
80695;DHT22;70059;42.702;23.312;2023-07-02T14:49:17;26.10;47.70
80695;DHT22;70059;42.702;23.312;2023-07-02T14:51:43;26.00;47.60
80695;DHT22;70059;42.702;23.312;2023-07-02T14:54:10;26.00;48.10
80695;DHT22;70059;42.702;23.312;2023-07-02T14:56:36;26.00;47.70
80695;DHT22;70059;42.702;23.312;2023-07-02T14:59:03;26.00;47.60
80695;DHT22;70059;42.702;23.312;2023-07-02T15:01:29;26.00;48.10
80695;DHT22;70059;42.702;23.312;2023-07-02T15:03:55;25.80;48.60
80695;DHT22;70059;42.702;23.312;2023-07-02T15:06:21;25.80;48.30
80695;DHT22;70059;42.702;23.312;2023-07-02T15:08:47;26.00;48.00
80695;DHT22;70059;42.702;23.312;2023-07-02T15:11:13;25.70;47.60
80695;DHT22;70059;42.702;23.312;2023-07-02T15:13:39;25.70;47.90
80695;DHT22;70059;42.702;23.312;2023-07-02T15:16:07;25.70;47.20
80695;DHT22;70059;42.702;23.312;2023-07-02T15:18:34;25.70;46.30
80695;DHT22;70059;42.702;23.312;2023-07-02T15:20:59;26.20;46.40
80695;DHT22;70059;42.702;23.312;2023-07-02T15:23:26;26.40;44.80
80695;DHT22;70059;42.702;23.312;2023-07-02T15:26:00;26.30;43.20